Time;durP1;ratioP1;P1;durP2;ratioP2;P2;SDS_P1;SDS_P2;PMS_P1;PMS_P2;Temp;Humidity;BMP_temperature;BMP_pressure;BME280_temperature;BME280_humidity;BME280_pressure;Samples;Min_cycle;Max_cycle;Signal;HPM_P1;HPM_P2
2022/04/06 00:00:44;;;;;;;9.95;7.30;;;;;;;10.01;65.93;98899.31;4899100;28;96982;-76
2022/04/06 00:03:09;;;;;;;9.20;7.57;;;;;;;9.96;66.15;98888.22;4899272;28;101236;-76
2022/04/06 00:05:35;;;;;;;9.15;6.72;;;;;;;9.95;66.22;98894.41;4896486;28;101222;-76
2022/04/06 00:08:01;;;;;;;7.25;5.78;;;;;;;9.97;66.48;98900.38;4913241;28;97178;-76
2022/04/06 00:10:27;;;;;;;7.15;5.50;;;;;;;10.00;66.53;98894.97;4915620;28;96795;-76
2022/04/06 00:12:53;;;;;;;7.63;5.80;;;;;;;10.01;66.49;98915.03;4915841;28;97475;-76
2022/04/06 00:15:18;;;;;;;7.18;5.45;;;;;;;9.97;66.42;98895.13;4907227;28;100917;-76
2022/04/06 00:17:44;;;;;;;6.63;5.13;;;;;;;10.01;66.72;98906.31;4927945;28;96755;-76
2022/04/06 00:20:10;;;;;;;5.75;4.35;;;;;;;10.02;66.67;98911.47;4900169;28;97223;-76
2022/04/06 00:22:36;;;;;;;5.18;4.40;;;;;;;10.05;66.42;98905.22;4903948;28;97369;-77
2022/04/06 00:25:01;;;;;;;4.50;4.10;;;;;;;9.88;66.59;98888.63;4913731;28;100394;-76
2022/04/06 00:27:27;;;;;;;3.70;3.38;;;;;;;10.07;66.82;98919.94;4932120;28;96690;-76
2022/04/06 00:29:53;;;;;;;4.35;3.85;;;;;;;10.01;66.57;98908.94;4901319;28;96790;-76
2022/04/06 00:32:18;;;;;;;4.70;3.88;;;;;;;9.89;67.12;98892.94;4879731;28;101185;-76
2022/04/06 00:37:28;;;;;;;5.20;3.97;;;;;;;10.06;66.65;98914.75;4917039;28;96881;-76
2022/04/06 00:39:54;;;;;;;4.88;4.07;;;;;;;10.02;66.79;98908.00;4915158;28;96855;-77
2022/04/06 00:42:19;;;;;;;4.50;4.10;;;;;;;10.04;66.93;98916.66;4898605;28;100946;-76
2022/04/06 00:44:45;;;;;;;4.43;4.03;;;;;;;9.93;66.35;98891.00;4898641;28;97581;-76
2022/04/06 00:47:11;;;;;;;5.15;4.28;;;;;;;10.09;66.64;98914.59;4907866;28;98686;-76
2022/04/06 00:49:36;;;;;;;4.40;3.97;;;;;;;10.10;66.70;98921.56;4920680;28;97391;-76
2022/04/06 00:52:04;;;;;;;6.50;4.93;;;;;;;10.12;66.48;98924.91;4890617;28;101628;-76
2022/04/06 00:54:31;;;;;;;5.07;4.57;;;;;;;9.99;66.28;98903.78;4914980;28;97542;-76
2022/04/06 00:56:57;;;;;;;5.22;4.65;;;;;;;10.12;66.63;98930.16;4883077;28;97003;-76
2022/04/06 00:59:23;;;;;;;6.40;5.13;;;;;;;10.14;66.48;98925.69;4916475;28;96814;-77
2022/04/06 01:01:50;;;;;;;6.07;5.10;;;;;;;10.14;66.62;98923.06;4893423;28;101337;-76
2022/04/06 01:04:16;;;;;;;5.93;5.32;;;;;;;10.13;66.51;98924.84;4909486;28;101042;-76
2022/04/06 01:06:42;;;;;;;5.93;5.00;;;;;;;10.12;66.35;98917.06;4916364;28;97224;-76
2022/04/06 01:09:07;;;;;;;6.18;5.15;;;;;;;10.09;66.51;98910.19;4918206;28;96927;-76
2022/04/06 01:11:34;;;;;;;5.57;4.95;;;;;;;10.15;66.42;98909.88;4903517;28;102303;-77
2022/04/06 01:14:00;;;;;;;5.95;5.40;;;;;;;10.10;66.78;98905.81;4887557;28;101240;-76
2022/04/06 01:16:26;;;;;;;5.03;4.50;;;;;;;10.15;66.93;98911.63;4890669;28;96758;-79
2022/04/06 01:18:51;;;;;;;5.95;5.35;;;;;;;10.07;66.75;98898.97;4902876;28;97084;-76
2022/04/06 01:21:17;;;;;;;5.93;5.43;;;;;;;10.22;66.72;98914.78;4918358;28;97715;-77
2022/04/06 01:23:43;;;;;;;5.95;5.35;;;;;;;10.14;66.88;98907.34;4902473;28;100941;-76
2022/04/06 01:26:09;;;;;;;5.93;5.32;;;;;;;10.20;66.73;98912.25;4898211;28;97199;-77
2022/04/06 01:28:36;;;;;;;5.85;5.13;;;;;;;10.13;65.99;98913.53;4900565;28;97428;-76
2022/04/06 01:31:02;;;;;;;5.78;5.18;;;;;;;10.19;66.17;98916.66;4911821;28;97628;-76
2022/04/06 01:33:28;;;;;;;5.97;5.38;;;;;;;10.19;66.53;98914.03;4910345;28;100869;-82
2022/04/06 01:35:56;;;;;;;5.40;4.80;;;;;;;10.08;66.29;98887.53;4930876;28;96673;-77
2022/04/06 01:38:22;;;;;;;5.13;4.63;;;;;;;10.26;66.32;98909.28;4900985;28;97181;-76
2022/04/06 01:40:47;;;;;;;4.85;4.45;;;;;;;10.22;66.28;98912.16;4897940;28;97377;-76
2022/04/06 01:43:13;;;;;;;7.00;5.20;;;;;;;10.20;66.05;98914.88;4911234;28;101566;-76
2022/04/06 01:45:38;;;;;;;6.38;4.43;;;;;;;10.19;66.46;98924.50;4913804;28;97103;-76
2022/04/06 01:48:04;;;;;;;5.22;4.72;;;;;;;10.09;66.46;98904.09;4918820;28;96998;-76
2022/04/06 01:53:14;;;;;;;5.38;4.82;;;;;;;10.21;66.30;98934.94;4947663;28;97700;-77
2022/04/06 01:55:40;;;;;;;6.07;4.82;;;;;;;9.95;66.53;98884.75;4920490;28;97065;-76
2022/04/06 01:58:06;;;;;;;6.85;4.65;;;;;;;10.24;66.70;98931.28;4923326;28;97019;-77
2022/04/06 02:00:31;;;;;;;4.72;4.32;;;;;;;10.27;67.04;98936.38;4920845;28;97899;-76
2022/04/06 02:02:57;;;;;;;4.93;4.32;;;;;;;10.18;66.37;98922.84;4928168;28;97305;-76
2022/04/06 02:05:23;;;;;;;4.90;4.50;;;;;;;10.17;66.31;98915.88;4920725;28;97716;-77
2022/04/06 02:07:50;;;;;;;5.07;4.47;;;;;;;10.17;66.43;98907.16;4936777;28;97331;-77
2022/04/06 02:10:17;;;;;;;5.65;4.80;;;;;;;10.29;66.46;98930.13;4936773;28;97465;-76
2022/04/06 02:12:44;;;;;;;4.53;4.13;;;;;;;10.28;66.75;98928.44;4949019;28;101375;-76
2022/04/06 02:15:11;;;;;;;4.97;4.45;;;;;;;10.29;66.96;98929.28;4936830;28;97775;-76
2022/04/06 02:17:37;;;;;;;4.90;4.10;;;;;;;10.33;67.09;98933.44;4925376;28;96857;-77
2022/04/06 02:20:04;;;;;;;5.50;4.78;;;;;;;10.31;66.66;98935.31;4964433;28;97286;-76
2022/04/06 02:22:30;;;;;;;5.18;4.68;;;;;;;10.26;67.15;98932.03;4925450;28;97357;-76
2022/04/06 02:24:55;;;;;;;4.25;3.85;;;;;;;10.29;67.09;98938.00;4934740;28;98427;-76
2022/04/06 02:27:21;;;;;;;4.82;4.18;;;;;;;10.28;66.83;98932.84;4908461;28;96693;-76
2022/04/06 02:29:47;;;;;;;4.40;4.00;;;;;;;10.27;67.30;98926.75;4965430;28;98003;-76
2022/04/06 02:32:13;;;;;;;4.50;4.07;;;;;;;10.29;67.39;98927.50;4944351;28;100892;-76
2022/04/06 02:34:39;;;;;;;3.78;3.47;;;;;;;10.31;67.02;98927.44;4930062;28;96727;-77
2022/04/06 02:37:07;;;;;;;6.53;4.10;;;;;;;10.32;66.99;98929.13;4913624;28;97119;-76
2022/04/06 02:39:33;;;;;;;3.75;3.30;;;;;;;10.34;66.64;98946.47;4953322;28;98645;-82
2022/04/06 02:41:59;;;;;;;4.22;3.83;;;;;;;10.32;66.97;98922.09;4938512;28;101091;-76
2022/04/06 02:44:24;;;;;;;4.72;3.45;;;;;;;10.35;66.86;98939.44;4920282;28;96872;-79
2022/04/06 02:46:50;;;;;;;3.20;2.90;;;;;;;10.37;66.88;98933.19;4953002;28;97143;-76
2022/04/06 02:49:16;;;;;;;4.55;3.63;;;;;;;10.37;66.78;98933.19;4943434;28;101663;-76
2022/04/06 02:51:41;;;;;;;3.88;2.70;;;;;;;10.16;66.53;98895.84;4923203;28;101038;-76
2022/04/06 02:54:07;;;;;;;5.07;3.50;;;;;;;10.36;66.84;98928.03;4944634;28;96845;-77
2022/04/06 02:56:33;;;;;;;3.35;2.60;;;;;;;10.32;66.74;98923.88;4954403;28;97250;-77
2022/04/06 02:58:59;;;;;;;3.55;2.50;;;;;;;10.36;66.32;98928.03;4937938;28;97710;-76
2022/04/06 03:01:24;;;;;;;2.85;2.60;;;;;;;10.27;66.29;98912.78;4952244;28;98419;-77
2022/04/06 03:03:50;;;;;;;2.78;2.53;;;;;;;10.28;66.67;98911.88;4928291;28;97357;-76
2022/04/06 03:06:16;;;;;;;2.53;2.30;;;;;;;10.38;66.53;98920.91;4948370;28;97358;-78
2022/04/06 03:08:43;;;;;;;3.67;2.30;;;;;;;10.42;66.55;98919.81;4935603;28;97508;-76
2022/04/06 03:11:08;;;;;;;2.80;2.50;;;;;;;10.36;66.65;98907.03;4925248;28;101846;-76
2022/04/06 03:13:34;;;;;;;2.90;2.28;;;;;;;10.36;66.67;98920.16;4957582;28;97642;-77
2022/04/06 03:16:00;;;;;;;3.05;2.40;;;;;;;10.39;66.54;98926.06;4919176;28;97814;-79
2022/04/06 03:18:25;;;;;;;3.10;2.80;;;;;;;10.41;66.72;98932.09;4932498;28;101389;-76
2022/04/06 03:20:51;;;;;;;3.03;2.60;;;;;;;10.37;66.69;98924.47;4935950;28;97348;-76
2022/04/06 03:23:16;;;;;;;5.72;2.90;;;;;;;10.36;66.75;98925.41;4938200;28;98370;-76
2022/04/06 03:25:43;;;;;;;2.88;2.65;;;;;;;10.25;67.11;98914.63;4940428;28;97252;-76
2022/04/06 03:28:08;;;;;;;2.78;2.58;;;;;;;10.37;67.59;98937.59;4916284;28;101578;-76
2022/04/06 03:30:34;;;;;;;3.20;2.90;;;;;;;10.28;67.70;98931.06;4940834;28;98062;-76
2022/04/06 03:32:59;;;;;;;3.63;3.00;;;;;;;10.37;67.62;98948.91;4955002;28;96571;-76
2022/04/06 03:35:25;;;;;;;3.97;3.33;;;;;;;10.26;67.75;98926.81;4932411;28;96810;-77
2022/04/06 03:37:51;;;;;;;4.93;3.55;;;;;;;10.33;67.91;98938.69;4944104;28;101542;-76
2022/04/06 03:40:17;;;;;;;4.78;4.00;;;;;;;10.36;67.82;98936.75;4938461;28;98042;-77
2022/04/06 03:42:42;;;;;;;5.63;4.50;;;;;;;10.39;68.04;98943.59;4948854;28;96771;-76
2022/04/06 03:45:09;;;;;;;5.30;4.68;;;;;;;10.37;68.02;98938.41;4928939;28;97939;-76
2022/04/06 03:47:35;;;;;;;5.93;5.07;;;;;;;10.32;68.59;98929.94;4918421;28;100649;-76
2022/04/06 03:50:03;;;;;;;5.70;5.20;;;;;;;10.34;68.77;98940.38;4928429;28;100916;-76
2022/04/06 03:52:29;;;;;;;5.85;5.20;;;;;;;10.26;68.53;98921.56;4943033;28;96777;-77
2022/04/06 03:54:54;;;;;;;6.45;5.85;;;;;;;10.27;68.49;98932.00;4934821;28;97166;-77
2022/04/06 03:57:20;;;;;;;7.53;6.10;;;;;;;10.30;68.44;98936.25;4914261;28;101215;-76
2022/04/06 03:59:46;;;;;;;6.57;5.82;;;;;;;10.33;68.53;98939.53;4936002;28;97595;-76
2022/04/06 04:02:12;;;;;;;6.75;6.05;;;;;;;10.34;68.48;98940.38;4928579;28;97182;-76
2022/04/06 04:04:37;;;;;;;7.72;6.10;;;;;;;10.35;68.69;98937.66;4923003;28;97255;-76
2022/04/06 04:07:03;;;;;;;6.18;5.57;;;;;;;10.30;68.51;98934.47;4918673;28;101751;-76
2022/04/06 04:09:29;;;;;;;7.40;6.38;;;;;;;10.22;68.51;98914.78;4932411;28;101096;-77
2022/04/06 04:11:56;;;;;;;7.85;5.97;;;;;;;10.31;68.49;98935.31;4918220;28;96913;-77
2022/04/06 04:14:23;;;;;;;10.48;6.38;;;;;;;10.26;68.55;98926.81;4918245;28;96831;-77
2022/04/06 04:16:49;;;;;;;7.72;6.72;;;;;;;10.23;68.97;98924.34;4917776;28;97784;-76
2022/04/06 04:19:15;;;;;;;6.68;6.07;;;;;;;10.27;69.04;98934.63;4918960;28;101298;-76
2022/04/06 04:21:42;;;;;;;7.03;6.32;;;;;;;10.30;68.65;98942.31;4917980;28;96865;-81
2022/04/06 04:24:09;;;;;;;7.35;6.13;;;;;;;10.32;68.83;98936.97;4934508;28;96859;-76
2022/04/06 04:26:36;;;;;;;7.00;6.35;;;;;;;10.22;68.91;98920.88;4934510;28;97697;-78
2022/04/06 04:29:03;;;;;;;7.47;6.78;;;;;;;10.27;68.77;98928.50;4913299;28;97297;-76
2022/04/06 04:31:28;;;;;;;7.45;6.75;;;;;;;10.32;68.48;98942.22;4934330;28;96790;-79
2022/04/06 04:33:54;;;;;;;7.45;6.72;;;;;;;10.33;68.82;98938.69;4934324;28;96785;-77
2022/04/06 04:36:20;;;;;;;9.30;7.22;;;;;;;10.32;68.92;98944.84;4928914;28;101424;-77
2022/04/06 04:38:45;;;;;;;7.75;6.95;;;;;;;10.32;68.66;98934.34;4917505;28;101571;-76
2022/04/06 04:41:12;;;;;;;7.20;6.55;;;;;;;10.36;68.47;98941.16;4943918;28;97153;-77
2022/04/06 04:43:37;;;;;;;10.68;6.93;;;;;;;10.33;68.86;98942.16;4934241;28;97018;-76
2022/04/06 04:46:03;;;;;;;6.90;6.30;;;;;;;10.30;68.78;98944.94;4951368;28;97328;-79
2022/04/06 04:48:29;;;;;;;6.80;6.20;;;;;;;10.28;68.57;98941.56;4949573;28;97430;-77
2022/04/06 04:50:55;;;;;;;7.05;6.35;;;;;;;10.27;68.84;98936.38;4914446;28;96917;-76
2022/04/06 04:53:20;;;;;;;6.57;5.97;;;;;;;10.34;68.74;98948.25;4939219;28;96874;-76
2022/04/06 04:55:46;;;;;;;6.65;5.95;;;;;;;10.31;68.48;98937.91;4917905;28;98185;-77
2022/04/06 04:58:12;;;;;;;6.70;6.07;;;;;;;10.23;68.79;98921.72;4927898;28;97839;-76
2022/04/06 05:00:37;;;;;;;7.35;5.85;;;;;;;10.20;68.55;98920.94;4904476;28;97262;-77
2022/04/06 05:03:03;;;;;;;6.85;6.15;;;;;;;10.37;68.39;98948.06;4905481;28;97299;-77
2022/04/06 05:05:29;;;;;;;7.40;6.03;;;;;;;10.41;68.90;98957.47;4918017;28;98095;-77
2022/04/06 05:07:57;;;;;;;7.20;6.10;;;;;;;10.39;68.40;98954.94;4932953;28;97439;-77
2022/04/06 05:10:23;;;;;;;6.53;5.88;;;;;;;10.44;68.57;98957.28;4904199;28;96771;-77
2022/04/06 05:12:48;;;;;;;6.22;5.28;;;;;;;10.42;68.13;98960.00;4956875;28;97323;-76
2022/04/06 05:15:14;;;;;;;6.38;5.78;;;;;;;10.11;68.79;98918.84;4940275;28;101386;-77
2022/04/06 05:17:40;;;;;;;6.15;5.55;;;;;;;10.36;68.68;98959.50;4933614;28;97286;-76
2022/04/06 05:20:10;;;;;;;6.72;5.47;;;;;;;10.36;68.75;98959.50;4919443;28;96949;-76
2022/04/06 05:22:35;;;;;;;6.30;4.97;;;;;;;10.32;68.71;98961.44;4941206;28;96773;-76
2022/04/06 05:25:04;;;;;;;7.38;5.05;;;;;;;10.36;68.99;98959.50;4918181;28;100904;-81
2022/04/06 05:27:42;;;;;;;6.40;5.13;;;;;;;10.42;68.31;98962.63;4914678;28;101135;-82
2022/04/06 05:30:08;;;;;;;5.75;4.47;;;;;;;10.44;68.54;98962.53;4941376;28;97752;-82
2022/04/06 05:32:33;;;;;;;6.70;5.00;;;;;;;10.38;68.81;98953.25;4912336;28;97246;-79
2022/04/06 05:34:59;;;;;;;6.05;5.00;;;;;;;10.43;68.42;98966.09;4896686;28;101770;-79
2022/04/06 05:37:25;;;;;;;6.35;4.95;;;;;;;10.30;68.51;98955.44;4904655;28;101100;-77
2022/04/06 05:39:51;;;;;;;4.75;3.85;;;;;;;10.34;68.31;98951.72;4910324;28;97587;-78
2022/04/06 05:42:17;;;;;;;5.20;4.68;;;;;;;10.48;68.63;98977.19;4916515;28;96819;-78
2022/04/06 05:44:42;;;;;;;5.45;4.20;;;;;;;10.46;68.73;98973.81;4914240;28;97423;-77
2022/04/06 05:47:08;;;;;;;5.32;4.28;;;;;;;10.50;68.96;98977.09;4912383;28;101055;-78
2022/04/06 05:49:33;;;;;;;9.32;4.75;;;;;;;10.49;68.91;98980.66;4899344;28;97052;-80
2022/04/06 05:51:59;;;;;;;6.18;4.78;;;;;;;10.45;68.39;98969.50;4903286;28;97360;-86
2022/04/06 05:54:24;;;;;;;5.38;4.50;;;;;;;10.49;68.56;98975.41;4916255;28;100740;-87
2022/04/06 05:56:50;;;;;;;6.50;3.97;;;;;;;10.50;69.11;98980.59;4891361;28;101441;-87
2022/04/06 05:59:15;;;;;;;5.70;3.95;;;;;;;10.56;68.83;98974.13;4912210;28;96825;-87
2022/04/06 06:01:41;;;;;;;6.57;4.22;;;;;;;10.46;68.20;98965.94;4915346;28;97293;-87
2022/04/06 06:04:06;;;;;;;5.95;4.30;;;;;;;10.60;68.69;98994.88;4915685;28;101583;-87
2022/04/06 06:06:32;;;;;;;6.00;4.55;;;;;;;10.48;68.34;98969.31;4915938;28;100428;-87
2022/04/06 06:08:58;;;;;;;7.88;4.10;;;;;;;10.53;68.75;98971.69;4928688;28;98082;-86
2022/04/06 06:11:23;;;;;;;6.82;3.80;;;;;;;10.67;68.75;99005.03;4909364;28;97177;-85
2022/04/06 06:13:49;;;;;;;5.93;3.92;;;;;;;10.64;68.35;98993.78;4948979;28;100645;-86
2022/04/06 06:16:15;;;;;;;5.80;3.10;;;;;;;10.65;68.39;98984.16;4916715;28;101113;-86
2022/04/06 06:18:41;;;;;;;5.00;3.63;;;;;;;10.68;68.61;99001.50;4927088;28;97407;-87
2022/04/06 06:21:06;;;;;;;4.75;3.53;;;;;;;10.60;68.61;98981.75;4909221;28;97689;-87
2022/04/06 06:23:32;;;;;;;7.38;3.75;;;;;;;10.57;68.42;98981.94;4931237;28;97757;-87
2022/04/06 06:25:58;;;;;;;6.03;3.80;;;;;;;10.68;68.11;98994.47;4916151;28;97683;-87
2022/04/06 06:28:24;;;;;;;4.63;3.70;;;;;;;10.71;68.38;98999.53;4888251;28;97358;-87
2022/04/06 06:30:49;;;;;;;5.88;3.90;;;;;;;10.76;68.64;99010.66;4919254;28;97164;-86
2022/04/06 06:33:16;;;;;;;5.03;3.78;;;;;;;10.81;68.48;99005.97;4927494;28;98730;-87
2022/04/06 06:35:42;;;;;;;6.57;3.78;;;;;;;10.81;68.33;99007.75;4915568;28;101201;-86
2022/04/06 06:38:08;;;;;;;4.63;3.38;;;;;;;10.78;68.01;98998.25;4915670;28;97083;-87
2022/04/06 06:40:33;;;;;;;5.63;4.30;;;;;;;10.81;68.14;99013.84;4932418;28;97405;-85
2022/04/06 06:42:59;;;;;;;5.25;3.53;;;;;;;10.81;68.07;99011.22;4910643;28;101072;-85
2022/04/06 06:45:24;;;;;;;4.15;3.53;;;;;;;10.75;68.28;99001.06;4905438;28;98356;-85
2022/04/06 06:47:51;;;;;;;4.57;3.30;;;;;;;10.75;68.02;98995.81;4929822;28;96750;-84
2022/04/06 06:50:17;;;;;;;3.25;2.72;;;;;;;10.79;67.90;99004.34;4919670;28;97070;-86
2022/04/06 06:52:43;;;;;;;4.68;3.00;;;;;;;10.87;67.67;99008.25;4911325;28;101586;-86
2022/04/06 06:55:09;;;;;;;3.35;2.25;;;;;;;10.74;67.58;98988.03;4921577;28;101259;-86
2022/04/06 06:57:35;;;;;;;3.90;2.28;;;;;;;10.88;67.70;99006.50;4935156;28;96919;-87
2022/04/06 07:00:01;;;;;;;3.15;2.78;;;;;;;10.97;67.24;99002.50;4922258;28;96810;-80
2022/04/06 07:02:26;;;;;;;5.88;3.30;;;;;;;10.84;67.22;98979.53;4934877;28;97855;-80
2022/04/06 07:04:52;;;;;;;4.13;3.00;;;;;;;11.02;67.47;99006.53;4917972;28;100831;-87
2022/04/06 07:07:17;;;;;;;4.78;2.90;;;;;;;10.99;67.21;99006.69;4951066;28;97506;-88
2022/04/06 07:09:43;;;;;;;4.00;3.60;;;;;;;11.07;67.13;99012.38;4919341;28;96874;-85
2022/04/06 07:12:10;;;;;;;5.57;3.60;;;;;;;11.08;67.39;99018.47;4934373;28;97601;-85
2022/04/06 07:14:36;;;;;;;5.35;3.58;;;;;;;11.04;67.29;99009.09;4902856;28;100352;-84
2022/04/06 07:17:02;;;;;;;5.60;4.18;;;;;;;11.08;67.32;99010.59;4902790;28;96933;-82
2022/04/06 07:19:28;;;;;;;5.57;4.22;;;;;;;10.87;67.27;98971.47;4901532;28;96765;-80
2022/04/06 07:21:53;;;;;;;6.97;4.72;;;;;;;11.04;67.17;99006.47;4917195;28;101264;-86
2022/04/06 07:24:19;;;;;;;8.52;4.85;;;;;;;10.95;66.97;98980.72;4930493;28;97389;-86
2022/04/06 07:26:45;;;;;;;5.80;4.32;;;;;;;11.01;66.72;98993.50;4928302;28;96912;-83
2022/04/06 07:29:15;;;;;;;6.65;5.15;;;;;;;11.08;66.94;99005.34;4929445;28;98064;-80
2022/04/06 07:31:43;;;;;;;5.93;5.03;;;;;;;11.14;67.03;99007.63;4894122;28;102890;-82
2022/04/06 07:34:10;;;;;;;6.53;5.20;;;;;;;11.13;67.13;99005.09;4914848;28;101485;-89
2022/04/06 07:36:35;;;;;;;6.93;5.18;;;;;;;11.15;67.34;99011.09;4919309;28;97245;-88
2022/04/06 07:39:05;;;;;;;13.07;4.88;;;;;;;11.16;66.91;99000.50;4935178;28;97157;-85
2022/04/06 07:41:32;;;;;;;7.00;4.30;;;;;;;11.19;66.78;98997.69;4929994;28;97595;-89
2022/04/06 07:43:58;;;;;;;5.18;4.25;;;;;;;11.21;66.98;99005.50;4918697;28;101720;-87
2022/04/06 07:46:24;;;;;;;5.22;4.22;;;;;;;11.26;66.60;99008.72;4934136;28;96802;-87
2022/04/06 07:48:49;;;;;;;4.90;4.13;;;;;;;11.23;67.12;98998.38;4917948;28;96999;-87
2022/04/06 07:51:15;;;;;;;5.25;3.80;;;;;;;11.25;66.94;98999.13;4932493;28;100932;-87
2022/04/06 07:53:41;;;;;;;5.85;4.13;;;;;;;11.27;66.96;98999.88;4915961;28;98007;-89
2022/04/06 07:56:07;;;;;;;6.00;4.10;;;;;;;11.01;66.42;98952.31;4932962;28;97355;-86
2022/04/06 07:58:34;;;;;;;8.05;4.38;;;;;;;11.33;66.69;99004.78;4902498;28;96767;-86
2022/04/06 08:01:02;;;;;;;4.85;4.20;;;;;;;11.40;66.20;99011.38;4917972;28;100288;-87
2022/04/06 08:03:29;;;;;;;6.57;4.47;;;;;;;11.45;66.05;99013.75;4934860;28;98011;-82
2022/04/06 08:05:56;;;;;;;7.03;4.78;;;;;;;11.39;66.36;98993.91;4941560;28;96826;-85
2022/04/06 08:08:21;;;;;;;5.93;4.50;;;;;;;11.23;65.80;98972.13;4918567;28;96876;-84
2022/04/06 08:10:47;;;;;;;5.70;3.92;;;;;;;11.39;65.56;98987.81;4919226;28;101415;-84
2022/04/06 08:13:13;;;;;;;7.07;4.40;;;;;;;11.55;65.98;99010.50;4916923;28;101101;-84
2022/04/06 08:15:38;;;;;;;5.60;4.07;;;;;;;11.56;65.74;99009.53;4934130;28;96716;-85
2022/04/06 08:18:06;;;;;;;4.72;3.70;;;;;;;11.23;65.76;98949.31;4916712;28;97931;-85
2022/04/06 08:20:31;;;;;;;6.22;4.38;;;;;;;11.55;65.03;99005.22;4928388;28;101651;-85
2022/04/06 08:22:57;;;;;;;5.55;3.85;;;;;;;11.66;65.50;99015.09;4928171;28;101292;-84
2022/04/06 08:25:22;;;;;;;6.25;4.50;;;;;;;11.52;65.15;98994.91;4892331;28;96974;-84
2022/04/06 08:27:48;;;;;;;5.43;3.97;;;;;;;11.55;64.98;99002.59;4916637;28;96914;-84
2022/04/06 08:30:16;;;;;;;6.50;4.18;;;;;;;11.67;65.14;99023.84;4929024;28;97961;-85
2022/04/06 08:32:42;;;;;;;3.35;3.03;;;;;;;11.57;64.30;99013.00;4912677;28;97468;-83
2022/04/06 08:35:08;;;;;;;3.88;2.78;;;;;;;11.63;64.08;99020.53;4931479;28;97065;-83
2022/04/06 08:37:35;;;;;;;3.47;2.83;;;;;;;11.69;63.96;99027.22;4915145;28;97146;-83
2022/04/06 08:40:00;;;;;;;4.05;2.88;;;;;;;11.60;64.04;99006.72;4913966;28;97317;-83
2022/04/06 08:42:27;;;;;;;3.78;2.30;;;;;;;11.70;64.14;99021.03;4896632;28;101716;-83
2022/04/06 08:44:54;;;;;;;4.15;2.72;;;;;;;11.65;63.90;99020.47;4899871;28;96784;-82
2022/04/06 08:47:19;;;;;;;4.00;3.03;;;;;;;11.74;63.77;99033.06;4923530;28;96857;-82
2022/04/06 08:49:46;;;;;;;4.07;3.00;;;;;;;11.74;63.84;99023.38;4896146;28;101197;-84
2022/04/06 08:52:12;;;;;;;5.32;2.80;;;;;;;11.82;64.05;99035.25;4882027;28;101027;-85
2022/04/06 08:54:39;;;;;;;4.25;2.97;;;;;;;11.86;63.92;99040.22;4879656;28;96716;-85
2022/04/06 08:57:05;;;;;;;4.20;3.60;;;;;;;11.81;63.91;99025.63;4902694;28;96913;-84
2022/04/06 08:59:32;;;;;;;4.60;3.45;;;;;;;11.59;63.54;98992.75;4897882;28;100340;-85
2022/04/06 09:01:58;;;;;;;3.75;3.00;;;;;;;11.84;63.25;99025.44;4909487;28;101586;-84
2022/04/06 09:04:24;;;;;;;3.40;3.10;;;;;;;11.79;63.25;99010.81;4883885;28;97049;-85
2022/04/06 09:06:50;;;;;;;6.20;3.17;;;;;;;11.91;63.27;99019.78;4893765;28;97141;-86
2022/04/06 09:09:27;;;;;;;3.35;3.05;;;;;;;11.89;63.48;99005.03;4881735;28;100797;-85
2022/04/06 09:11:53;;;;;;;4.30;3.15;;;;;;;12.06;63.33;99033.78;4896700;28;101563;-84
2022/04/06 09:14:31;;;;;;;5.57;3.50;;;;;;;12.05;63.09;99024.22;4891247;28;96709;-85
2022/04/06 09:17:07;;;;;;;4.20;3.38;;;;;;;11.94;62.99;99002.97;4885008;28;97768;-84
2022/04/06 09:19:45;;;;;;;2.83;2.63;;;;;;;12.16;62.95;99027.03;4905959;28;101062;-85
2022/04/06 09:22:10;;;;;;;5.28;3.65;;;;;;;12.21;62.98;99019.69;4875670;28;101268;-85
2022/04/06 09:24:37;;;;;;;6.15;4.00;;;;;;;12.24;62.72;99026.56;4891186;28;97316;-84
2022/04/06 09:27:04;;;;;;;4.57;3.40;;;;;;;12.26;62.45;99022.06;4896908;28;96817;-86
2022/04/06 09:29:35;;;;;;;6.30;4.18;;;;;;;12.24;62.61;99016.03;4895689;28;101378;-81
2022/04/06 09:32:06;;;;;;;7.25;4.55;;;;;;;12.12;62.43;98991.31;4897284;28;101921;-84
2022/04/06 09:34:33;;;;;;;4.93;3.47;;;;;;;12.29;62.34;99010.50;4895130;28;97970;-84
2022/04/06 09:36:58;;;;;;;6.20;3.90;;;;;;;12.23;62.15;98998.56;4895093;28;97569;-84
2022/04/06 09:39:43;;;;;;;4.20;3.40;;;;;;;12.19;62.13;99008.44;4913534;28;100966;-85
2022/04/06 09:42:10;;;;;;;7.47;4.25;;;;;;;12.31;61.63;99011.25;4905839;28;101322;-85
2022/04/06 09:47:38;;;;;;;4.72;3.40;;;;;;;12.34;62.12;99014.53;4942059;28;97182;-85
2022/04/06 09:50:14;;;;;;;3.50;3.15;;;;;;;12.40;62.62;99013.31;4901695;28;100506;-84
2022/04/06 09:52:41;;;;;;;4.88;3.65;;;;;;;12.37;63.09;99000.34;4906513;28;99867;-85
2022/04/06 09:55:09;;;;;;;5.05;3.55;;;;;;;12.35;62.86;98999.59;4911997;28;96811;-85
2022/04/06 09:57:42;;;;;;;5.00;4.10;;;;;;;12.44;63.72;99009.53;4918516;28;97140;-84
2022/04/06 10:00:11;;;;;;;7.78;4.32;;;;;;;12.43;63.54;99007.84;4917158;28;101075;-84
2022/04/06 10:02:37;;;;;;;7.22;4.30;;;;;;;12.37;63.60;98998.56;4916282;28;101821;-85
2022/04/06 10:05:03;;;;;;;5.20;4.32;;;;;;;12.34;63.31;99001.38;4896817;28;97182;-85
2022/04/06 10:07:29;;;;;;;4.85;3.28;;;;;;;12.34;62.48;99001.38;4899732;28;96862;-80
2022/04/06 10:09:56;;;;;;;4.57;3.65;;;;;;;12.49;62.36;99027.69;4915900;28;101735;-83
2022/04/06 10:12:21;;;;;;;5.05;3.70;;;;;;;12.46;61.82;99026.94;4900421;28;101583;-85
2022/04/06 10:14:47;;;;;;;7.30;4.38;;;;;;;12.37;62.64;98998.56;4908684;28;97050;-84
2022/04/06 10:17:14;;;;;;;6.18;3.85;;;;;;;12.49;62.73;99020.63;4916588;28;97199;-83
2022/04/06 10:19:49;;;;;;;5.28;3.75;;;;;;;12.52;62.62;99024.88;4915774;28;98608;-84
2022/04/06 10:22:19;;;;;;;4.97;3.63;;;;;;;12.55;62.54;99024.66;4916505;28;97884;-83
2022/04/06 10:25:09;;;;;;;3.70;3.00;;;;;;;12.56;63.06;99021.09;4935156;28;97008;-84
2022/04/06 10:27:43;;;;;;;4.53;3.20;;;;;;;12.39;63.09;98974.75;4917987;28;97180;-83
2022/04/06 10:30:23;;;;;;;3.17;2.47;;;;;;;12.64;62.53;99014.41;4903073;28;101407;-83
2022/04/06 10:32:50;;;;;;;4.18;3.03;;;;;;;12.62;62.64;98989.09;4904217;28;101278;-84
2022/04/06 10:35:20;;;;;;;5.45;3.25;;;;;;;12.65;62.18;98984.50;4918501;28;96809;-83
2022/04/06 10:37:53;;;;;;;4.90;3.33;;;;;;;12.84;62.66;99010.50;4953409;28;96766;-84
2022/04/06 10:40:19;;;;;;;2.83;2.35;;;;;;;12.89;62.29;99007.59;4902456;28;101759;-84
2022/04/06 10:42:46;;;;;;;3.63;2.67;;;;;;;12.88;61.79;98997.97;4952511;28;98384;-83
2022/04/06 10:45:29;;;;;;;3.10;2.45;;;;;;;12.96;61.28;99003.59;4918767;28;96702;-84
2022/04/06 10:48:15;;;;;;;2.88;2.13;;;;;;;12.93;60.92;98993.25;4900918;28;96778;-83
2022/04/06 10:50:42;;;;;;;5.30;2.53;;;;;;;12.83;60.48;98974.59;4899637;28;101383;-81
2022/04/06 10:53:23;;;;;;;5.10;2.63;;;;;;;12.99;61.18;98989.38;4899825;28;101469;-81
2022/04/06 10:55:56;;;;;;;10.07;3.20;;;;;;;13.02;61.53;98968.13;4897476;28;97104;-81
2022/04/06 10:58:23;;;;;;;6.72;3.20;;;;;;;13.21;61.79;98989.69;4915272;28;96914;-77
2022/04/06 11:01:17;;;;;;;4.45;2.75;;;;;;;13.35;61.21;98989.66;4900968;28;97992;-82
2022/04/06 11:03:57;;;;;;;4.97;2.65;;;;;;;13.47;60.56;98976.59;4916202;28;97570;-83
2022/04/06 11:06:40;;;;;;;3.65;2.63;;;;;;;13.55;60.17;98982.19;4897938;28;96750;-84
2022/04/06 11:12:19;;;;;;;4.43;3.10;;;;;;;13.55;59.82;98955.81;4913379;28;101136;-85
2022/04/06 11:14:49;;;;;;;4.93;3.40;;;;;;;13.73;59.48;98977.44;4913582;28;101374;-84
2022/04/06 11:19:59;;;;;;;5.45;4.38;;;;;;;13.74;58.18;98966.81;4905361;28;97222;-84
2022/04/06 11:22:25;;;;;;;7.10;4.15;;;;;;;13.64;58.25;98947.28;4901912;28;101728;-83
2022/04/06 11:24:50;;;;;;;6.10;4.43;;;;;;;13.77;57.84;98968.38;4896206;28;101633;-84
2022/04/06 11:27:37;;;;;;;5.95;3.90;;;;;;;13.74;57.74;98960.69;4912268;28;97127;-84
2022/04/06 11:30:09;;;;;;;8.23;4.25;;;;;;;13.76;57.58;98970.19;4897420;28;96756;-84
2022/04/06 11:32:36;;;;;;;9.30;4.63;;;;;;;13.71;57.80;98961.75;4891019;28;101880;-85
2022/04/06 11:35:06;;;;;;;5.63;3.80;;;;;;;13.76;56.83;98964.91;4911990;28;101523;-85
2022/04/06 11:37:41;;;;;;;5.47;3.22;;;;;;;13.72;56.96;98950.22;4882320;28;97104;-84
2022/04/06 11:40:09;;;;;;;3.72;3.03;;;;;;;13.75;56.76;98970.28;4896948;28;96795;-82
2022/04/06 11:42:34;;;;;;;4.60;3.33;;;;;;;13.70;56.93;98952.16;4912881;28;97400;-83
2022/04/06 11:45:00;;;;;;;7.00;4.50;;;;;;;13.76;56.88;98958.81;4895979;28;99925;-83